Time;durP1;ratioP1;P1;durP2;ratioP2;P2;SDS_P1;SDS_P2;PMS_P1;PMS_P2;Temp;Humidity;BMP_temperature;BMP_pressure;BME280_temperature;BME280_humidity;BME280_pressure;Samples;Min_cycle;Max_cycle;Signal;HPM_P1;HPM_P2
2022/08/07 00:01:25;;;;;;;9.33;1.00;;;20.30;24.60;;;;;;5044543;28;20905;-71
2022/08/07 00:04:10;;;;;;;2.60;1.10;;;20.30;24.60;;;;;;5050491;28;20492;-71
2022/08/07 00:06:56;;;;;;;1.80;0.90;;;20.30;24.70;;;;;;5042418;28;20952;-71
2022/08/07 00:09:43;;;;;;;2.10;0.80;;;20.30;24.60;;;;;;5050002;28;20451;-71
2022/08/07 00:12:28;;;;;;;2.53;1.10;;;20.40;25.00;;;;;;5049311;28;20432;-71
2022/08/07 00:15:14;;;;;;;2.87;0.97;;;20.30;24.70;;;;;;5043151;28;20451;-71
2022/08/07 00:18:00;;;;;;;5.00;0.90;;;20.30;24.80;;;;;;5047050;28;20439;-71
2022/08/07 00:20:48;;;;;;;2.30;0.80;;;20.30;24.80;;;;;;5049113;28;20498;-71
2022/08/07 00:23:35;;;;;;;2.20;0.70;;;20.20;25.10;;;;;;5047535;28;21142;-71
2022/08/07 00:26:22;;;;;;;4.97;1.17;;;20.20;25.40;;;;;;5046359;28;20529;-71
2022/08/07 00:29:08;;;;;;;3.17;0.80;;;20.20;24.80;;;;;;5047638;28;20441;-71
2022/08/07 00:31:54;;;;;;;2.70;1.10;;;20.20;25.00;;;;;;5049605;28;20699;-71
2022/08/07 00:34:40;;;;;;;8.80;1.93;;;20.20;25.40;;;;;;5047236;28;20463;-71
2022/08/07 00:37:26;;;;;;;3.50;0.87;;;20.20;25.20;;;;;;5051999;28;20856;-71
2022/08/07 00:40:12;;;;;;;2.17;0.90;;;20.20;25.10;;;;;;5048599;28;20439;-71
2022/08/07 00:42:59;;;;;;;2.90;1.00;;;20.20;25.00;;;;;;5048462;28;20574;-71
2022/08/07 00:45:45;;;;;;;3.10;0.97;;;20.10;25.20;;;;;;5042258;28;20448;-72
2022/08/07 00:48:31;;;;;;;3.67;0.70;;;20.10;25.10;;;;;;5047131;28;20447;-71
2022/08/07 00:51:17;;;;;;;2.27;1.23;;;20.10;25.20;;;;;;5049110;28;20447;-70
2022/08/07 00:54:02;;;;;;;4.63;1.00;;;20.10;25.00;;;;;;5044904;28;20463;-71
2022/08/07 00:56:49;;;;;;;3.20;0.80;;;20.00;25.20;;;;;;5047762;28;20451;-71
2022/08/07 00:59:37;;;;;;;3.80;1.00;;;20.00;25.40;;;;;;5046516;28;20591;-71
2022/08/07 01:02:23;;;;;;;7.20;0.80;;;19.90;25.50;;;;;;5047774;28;20443;-71
2022/08/07 01:05:10;;;;;;;1.73;0.87;;;19.90;26.30;;;;;;5039855;28;20479;-71
2022/08/07 01:07:56;;;;;;;3.73;0.80;;;19.90;25.80;;;;;;5049072;28;20963;-71
2022/08/07 01:10:42;;;;;;;2.60;0.80;;;19.90;26.30;;;;;;5052988;28;20450;-71
2022/08/07 01:13:28;;;;;;;1.93;0.73;;;20.00;25.90;;;;;;5051316;28;20471;-71
2022/08/07 01:16:16;;;;;;;2.07;0.90;;;19.90;26.30;;;;;;5053513;28;20463;-71
2022/08/07 01:19:03;;;;;;;2.80;0.80;;;20.00;25.60;;;;;;5049933;28;20573;-71
2022/08/07 01:21:51;;;;;;;2.10;1.00;;;19.90;26.30;;;;;;5051498;28;20451;-71
2022/08/07 01:24:38;;;;;;;2.57;0.70;;;19.90;26.30;;;;;;5051078;28;20479;-71
2022/08/07 01:27:24;;;;;;;2.33;1.00;;;19.90;26.00;;;;;;5051425;28;20450;-71
2022/08/07 01:30:10;;;;;;;1.70;0.60;;;19.90;25.80;;;;;;5051800;28;20484;-71
2022/08/07 01:32:57;;;;;;;5.63;1.10;;;19.90;25.70;;;;;;5050731;28;20491;-71
2022/08/07 01:35:43;;;;;;;2.90;1.00;;;19.90;25.80;;;;;;5050685;28;20444;-71
2022/08/07 01:38:31;;;;;;;1.93;0.80;;;19.80;26.20;;;;;;5054153;28;20529;-71
2022/08/07 01:41:18;;;;;;;3.17;0.80;;;19.80;26.30;;;;;;5053667;28;20443;-71
2022/08/07 01:44:04;;;;;;;3.00;0.90;;;19.80;26.30;;;;;;5045082;28;20561;-71
2022/08/07 01:46:50;;;;;;;3.00;0.97;;;19.80;25.80;;;;;;5052180;28;20468;-71
2022/08/07 01:49:36;;;;;;;2.53;0.90;;;19.90;26.40;;;;;;5048527;28;21018;-71
2022/08/07 01:52:25;;;;;;;3.10;1.00;;;19.80;26.20;;;;;;5052456;28;20448;-71
2022/08/07 01:55:14;;;;;;;2.73;0.90;;;19.80;26.20;;;;;;5043447;28;20825;-71
2022/08/07 01:58:00;;;;;;;2.47;0.63;;;19.80;26.20;;;;;;5050954;28;20443;-71
2022/08/07 02:00:50;;;;;;;2.30;0.70;;;19.80;26.30;;;;;;5050564;28;20448;-71
2022/08/07 02:03:40;;;;;;;2.57;0.80;;;19.70;26.20;;;;;;5045209;28;20463;-71
2022/08/07 02:06:29;;;;;;;3.63;0.67;;;19.70;26.20;;;;;;5052849;28;20459;-71
2022/08/07 02:09:18;;;;;;;2.53;1.00;;;19.70;26.20;;;;;;5052331;28;20836;-71
2022/08/07 02:12:16;;;;;;;1.77;0.60;;;19.60;26.10;;;;;;5049387;28;20543;-71
2022/08/07 02:15:03;;;;;;;2.17;1.00;;;19.60;26.10;;;;;;5043941;28;20443;-71
2022/08/07 02:17:51;;;;;;;4.43;0.90;;;19.60;26.10;;;;;;5051057;28;20439;-71
2022/08/07 02:20:37;;;;;;;1.60;0.60;;;19.60;26.90;;;;;;5050071;28;20452;-71
2022/08/07 02:23:24;;;;;;;2.43;0.70;;;19.60;26.10;;;;;;5045502;28;20895;-71
2022/08/07 02:26:11;;;;;;;1.40;0.60;;;19.60;26.10;;;;;;5049841;28;20463;-71
2022/08/07 02:28:58;;;;;;;4.80;0.80;;;19.60;26.10;;;;;;5051148;28;20439;-71
2022/08/07 02:31:45;;;;;;;2.20;0.97;;;19.60;26.10;;;;;;5046007;28;20969;-71
2022/08/07 02:34:32;;;;;;;3.30;0.80;;;19.60;26.60;;;;;;5047129;28;20922;-71
2022/08/07 02:37:19;;;;;;;1.50;0.63;;;19.60;26.50;;;;;;5050634;28;20443;-71
2022/08/07 02:40:07;;;;;;;2.50;0.73;;;19.60;26.40;;;;;;5051406;28;21002;-71
2022/08/07 02:42:55;;;;;;;2.17;1.23;;;19.60;26.70;;;;;;5047257;28;20483;-71
2022/08/07 02:45:43;;;;;;;1.60;0.60;;;19.60;26.60;;;;;;5047471;28;20526;-71
2022/08/07 02:48:29;;;;;;;5.60;0.80;;;19.60;26.70;;;;;;5048476;28;20451;-71
2022/08/07 02:51:20;;;;;;;2.10;0.90;;;19.50;26.20;;;;;;5049317;28;20471;-71
2022/08/07 02:54:09;;;;;;;3.20;0.57;;;19.50;27.00;;;;;;5050274;28;20467;-71
2022/08/07 02:56:57;;;;;;;1.50;0.60;;;19.40;26.70;;;;;;5049005;28;20917;-71
2022/08/07 02:59:47;;;;;;;1.70;0.70;;;19.40;26.60;;;;;;5050409;28;20447;-71
2022/08/07 03:02:36;;;;;;;4.53;0.83;;;19.40;27.50;;;;;;5041172;28;21016;-71
2022/08/07 03:05:24;;;;;;;2.03;0.80;;;19.50;27.00;;;;;;5049239;28;20484;-71
2022/08/07 03:08:10;;;;;;;4.80;0.80;;;19.50;27.10;;;;;;5050172;28;20439;-71
2022/08/07 03:10:56;;;;;;;2.33;0.80;;;19.50;26.90;;;;;;5048940;28;21011;-71
2022/08/07 03:13:43;;;;;;;1.73;0.70;;;19.50;27.20;;;;;;5044302;28;20894;-71
2022/08/07 03:16:29;;;;;;;2.93;0.60;;;19.40;27.00;;;;;;5049067;28;20452;-71
2022/08/07 03:19:16;;;;;;;1.73;0.80;;;19.40;27.10;;;;;;5053548;28;20451;-71
2022/08/07 03:22:05;;;;;;;3.50;0.70;;;19.40;27.30;;;;;;5047471;28;20447;-70
2022/08/07 03:24:51;;;;;;;1.93;0.73;;;19.40;27.20;;;;;;5050903;28;20577;-71
2022/08/07 03:27:37;;;;;;;2.20;0.80;;;19.30;27.50;;;;;;5049803;28;20459;-71
2022/08/07 03:30:24;;;;;;;2.47;0.80;;;19.30;27.70;;;;;;5045482;28;20479;-71
2022/08/07 03:33:11;;;;;;;2.27;0.80;;;19.40;27.30;;;;;;5048337;28;20455;-72
2022/08/07 03:35:57;;;;;;;2.03;0.60;;;19.30;27.30;;;;;;5048034;28;21379;-71
2022/08/07 03:38:45;;;;;;;2.70;1.00;;;19.30;27.20;;;;;;5052521;28;20446;-71
2022/08/07 03:41:32;;;;;;;1.93;0.80;;;19.30;27.60;;;;;;5043358;28;21058;-71
2022/08/07 03:44:18;;;;;;;2.20;0.80;;;19.10;28.10;;;;;;5050882;28;20847;-71
2022/08/07 03:47:06;;;;;;;3.30;0.83;;;19.10;28.00;;;;;;5053081;28;20443;-71
2022/08/07 03:49:52;;;;;;;2.50;0.60;;;19.00;28.50;;;;;;5047800;28;20544;-71
2022/08/07 03:52:40;;;;;;;2.30;0.83;;;19.00;29.10;;;;;;5048265;28;21023;-71
2022/08/07 03:55:28;;;;;;;2.40;0.77;;;19.00;28.60;;;;;;5045812;28;20443;-70
2022/08/07 03:58:14;;;;;;;2.03;0.70;;;18.90;28.60;;;;;;5053334;28;20816;-71
2022/08/07 04:01:00;;;;;;;2.20;0.73;;;18.80;28.50;;;;;;5048844;28;20522;-71
2022/08/07 04:03:46;;;;;;;3.83;0.60;;;18.80;29.00;;;;;;5048731;28;20466;-71
2022/08/07 04:06:33;;;;;;;1.97;1.23;;;18.60;29.60;;;;;;5050345;28;20578;-71
2022/08/07 04:09:20;;;;;;;2.57;0.80;;;18.60;29.20;;;;;;5052889;28;20475;-71
2022/08/07 04:12:07;;;;;;;2.03;0.67;;;18.70;30.40;;;;;;5044127;28;20455;-71
2022/08/07 04:14:53;;;;;;;3.90;0.80;;;18.50;29.90;;;;;;5055455;28;20442;-71
2022/08/07 04:17:42;;;;;;;1.90;0.63;;;18.50;30.20;;;;;;5045270;28;20452;-71
2022/08/07 04:20:28;;;;;;;1.80;0.90;;;18.40;31.90;;;;;;5044390;28;20705;-71
2022/08/07 04:27:07;;;;;;;1.70;0.83;;;18.30;30.80;;;;;;5019134;28;20599;-75
2022/08/07 04:29:57;;;;;;;2.43;0.70;;;18.30;30.00;;;;;;5029224;28;20460;-75
2022/08/07 04:32:43;;;;;;;1.90;0.87;;;18.40;30.80;;;;;;5026964;28;20568;-75
2022/08/07 04:35:30;;;;;;;5.43;1.27;;;18.40;31.20;;;;;;5026842;28;20498;-75
2022/08/07 04:38:15;;;;;;;4.80;0.83;;;18.30;31.00;;;;;;5033530;28;20427;-75
2022/08/07 04:41:01;;;;;;;2.00;0.70;;;18.30;31.10;;;;;;5027803;28;20444;-75
2022/08/07 04:43:49;;;;;;;2.73;1.00;;;18.30;30.80;;;;;;5030865;28;20479;-75
2022/08/07 04:46:41;;;;;;;3.33;1.00;;;18.40;31.00;;;;;;5029141;28;20436;-75
2022/08/07 04:49:36;;;;;;;3.00;0.60;;;18.30;31.80;;;;;;5030569;28;20851;-76
2022/08/07 04:52:30;;;;;;;3.07;0.80;;;18.20;31.90;;;;;;5029229;28;20451;-74
2022/08/07 04:55:22;;;;;;;5.23;1.43;;;18.20;31.90;;;;;;5040251;28;20959;-75
2022/08/07 04:58:16;;;;;;;1.70;0.80;;;18.20;33.00;;;;;;5046377;28;20433;-75
2022/08/07 05:01:13;;;;;;;4.53;1.00;;;18.30;33.30;;;;;;5035208;28;20452;-75
2022/08/07 05:04:15;;;;;;;4.03;0.97;;;18.30;35.30;;;;;;5029814;28;20471;-75
2022/08/07 05:07:11;;;;;;;1.40;0.70;;;18.20;34.30;;;;;;5030617;28;20471;-75
2022/08/07 05:10:02;;;;;;;2.90;0.90;;;18.20;33.80;;;;;;5026519;28;21059;-75
2022/08/07 05:12:52;;;;;;;2.03;0.70;;;18.20;33.70;;;;;;5032858;28;20451;-75
2022/08/07 05:15:42;;;;;;;1.57;0.80;;;18.20;33.90;;;;;;5033554;28;20450;-75
2022/08/07 05:18:31;;;;;;;2.27;0.70;;;18.20;33.10;;;;;;5029525;28;20586;-75
2022/08/07 05:21:20;;;;;;;1.77;0.70;;;18.40;32.80;;;;;;5031360;28;20490;-75
2022/08/07 05:24:11;;;;;;;1.73;0.73;;;18.50;32.90;;;;;;5027227;28;20481;-75
2022/08/07 05:26:59;;;;;;;2.07;0.80;;;18.60;32.60;;;;;;5032882;28;20992;-75
2022/08/07 05:29:46;;;;;;;1.90;0.60;;;18.70;31.80;;;;;;5029853;28;20471;-75
2022/08/07 05:32:32;;;;;;;4.60;1.70;;;18.70;31.80;;;;;;5037699;28;20452;-75
2022/08/07 05:37:56;;;;;;;4.70;0.90;;;18.90;33.60;;;;;;4772158;26;20474;-75
2022/08/07 05:51:27;;;;;;;1.67;0.70;;;19.20;31.30;;;;;;5032789;22;20623;-72
2022/08/07 05:54:17;;;;;;;3.80;1.10;;;19.30;30.80;;;;;;5042333;28;20484;-72
2022/08/07 05:57:03;;;;;;;2.37;1.00;;;19.50;31.00;;;;;;5031162;28;20466;-72
2022/08/07 05:59:50;;;;;;;3.73;0.60;;;19.50;30.60;;;;;;5026899;28;20449;-72
2022/08/07 06:02:36;;;;;;;2.20;0.73;;;19.60;31.00;;;;;;5033848;28;20805;-73
2022/08/07 06:05:25;;;;;;;1.60;0.77;;;19.80;31.40;;;;;;5033397;28;20615;-72
2022/08/07 06:08:11;;;;;;;1.90;0.93;;;19.90;31.00;;;;;;5031303;28;20460;-72
2022/08/07 06:10:59;;;;;;;3.50;1.30;;;19.90;30.20;;;;;;5030747;28;20712;-72
2022/08/07 06:13:44;;;;;;;1.63;0.63;;;20.10;30.20;;;;;;5031574;28;20451;-72
2022/08/07 06:16:33;;;;;;;2.03;0.77;;;20.10;29.50;;;;;;5031863;28;20530;-73
2022/08/07 06:19:20;;;;;;;1.70;0.80;;;20.20;29.50;;;;;;5034502;28;20789;-72
2022/08/07 06:22:06;;;;;;;2.30;0.70;;;20.30;30.00;;;;;;5028309;28;20519;-72
2022/08/07 06:24:52;;;;;;;2.80;0.83;;;20.40;30.50;;;;;;5031303;28;20980;-72
2022/08/07 06:27:39;;;;;;;2.00;0.80;;;20.60;30.60;;;;;;5027464;28;21023;-72
2022/08/07 06:30:25;;;;;;;3.13;0.80;;;20.70;30.30;;;;;;5022764;28;20578;-72
2022/08/07 06:33:10;;;;;;;2.83;1.00;;;20.70;30.30;;;;;;5032914;28;20454;-72
2022/08/07 06:35:56;;;;;;;2.07;0.80;;;20.70;29.30;;;;;;5034474;28;20587;-72
2022/08/07 06:38:42;;;;;;;1.50;0.70;;;20.80;29.30;;;;;;5028946;28;20495;-72
2022/08/07 06:41:35;;;;;;;2.57;1.00;;;20.90;29.90;;;;;;5027463;28;20991;-72
2022/08/07 06:44:24;;;;;;;1.50;0.60;;;21.00;29.00;;;;;;5035989;28;20805;-72
2022/08/07 06:47:10;;;;;;;2.17;1.00;;;21.10;29.80;;;;;;5034979;28;20522;-72
2022/08/07 06:49:56;;;;;;;5.00;1.53;;;21.20;29.70;;;;;;5023018;28;20640;-73
2022/08/07 06:52:45;;;;;;;2.97;1.03;;;21.20;29.90;;;;;;5038669;28;20795;-72
2022/08/07 06:55:33;;;;;;;2.30;1.37;;;21.20;29.50;;;;;;5027421;28;20498;-72
2022/08/07 06:58:21;;;;;;;3.10;1.10;;;21.30;30.00;;;;;;5029059;28;20522;-72
2022/08/07 07:01:11;;;;;;;4.83;1.07;;;21.40;29.60;;;;;;5028563;28;20614;-72
2022/08/07 07:03:56;;;;;;;2.03;1.00;;;21.40;30.00;;;;;;5035459;28;20518;-73
2022/08/07 07:06:43;;;;;;;2.93;0.87;;;21.50;29.50;;;;;;5031245;28;20472;-72
2022/08/07 07:09:30;;;;;;;2.10;1.00;;;21.50;29.30;;;;;;5025051;28;20448;-72
2022/08/07 07:12:30;;;;;;;5.00;1.00;;;21.60;29.80;;;;;;5033484;28;20444;-72
2022/08/07 07:15:20;;;;;;;1.90;0.90;;;21.80;29.00;;;;;;5030499;28;20532;-72
2022/08/07 07:18:14;;;;;;;2.17;0.90;;;21.80;29.00;;;;;;5026629;28;20448;-72
2022/08/07 07:21:04;;;;;;;2.40;1.10;;;21.70;29.60;;;;;;5029549;28;20468;-72
2022/08/07 07:23:51;;;;;;;4.87;1.30;;;21.80;29.80;;;;;;5030008;28;20449;-72
2022/08/07 07:26:37;;;;;;;2.83;1.00;;;21.80;30.80;;;;;;5031748;28;20486;-72
2022/08/07 07:29:30;;;;;;;2.60;1.17;;;21.80;31.10;;;;;;5028019;28;20440;-72
2022/08/07 07:32:17;;;;;;;2.00;1.20;;;21.90;30.70;;;;;;5030489;28;20928;-72
2022/08/07 07:35:06;;;;;;;2.20;0.93;;;22.10;30.30;;;;;;5031232;28;20474;-72
2022/08/07 07:37:53;;;;;;;2.23;1.10;;;22.20;30.50;;;;;;5026781;28;20447;-72
2022/08/07 07:40:41;;;;;;;2.17;1.00;;;22.20;30.60;;;;;;5028957;28;20460;-72
2022/08/07 07:43:29;;;;;;;3.27;1.00;;;22.30;29.70;;;;;;5029486;28;20504;-73
2022/08/07 07:46:15;;;;;;;2.00;1.00;;;22.40;30.20;;;;;;5033932;28;20464;-72
2022/08/07 07:49:02;;;;;;;3.20;1.10;;;22.50;30.80;;;;;;5021424;28;20965;-72
2022/08/07 07:51:49;;;;;;;3.60;1.40;;;22.50;30.20;;;;;;5035860;28;20606;-72
2022/08/07 07:54:36;;;;;;;2.10;0.97;;;22.60;32.40;;;;;;5046717;28;20437;-73
2022/08/07 07:57:24;;;;;;;4.87;1.37;;;22.70;30.60;;;;;;5036446;28;20470;-72
2022/08/07 08:00:12;;;;;;;2.30;1.20;;;22.70;30.50;;;;;;5035165;28;21091;-72
2022/08/07 08:03:01;;;;;;;2.87;1.13;;;22.70;31.50;;;;;;5046643;28;20436;-72
2022/08/07 08:05:47;;;;;;;4.53;1.20;;;22.80;32.20;;;;;;5048116;28;20509;-72
2022/08/07 08:08:36;;;;;;;6.07;1.43;;;22.90;33.10;;;;;;5031947;28;20592;-72
2022/08/07 08:11:22;;;;;;;2.90;1.40;;;23.00;33.30;;;;;;5040026;28;21094;-72
2022/08/07 08:14:07;;;;;;;2.77;1.10;;;23.10;32.40;;;;;;5037799;28;20444;-73
2022/08/07 08:16:55;;;;;;;3.40;1.40;;;23.10;32.60;;;;;;5042821;28;20423;-73
2022/08/07 08:19:41;;;;;;;2.83;1.30;;;23.30;31.90;;;;;;5043280;28;20979;-72
2022/08/07 08:28:44;;;;;;;2.60;1.50;;;23.50;31.80;;;;;;5025466;28;20452;-71
2022/08/07 08:31:34;;;;;;;2.40;1.37;;;23.60;32.40;;;;;;5041603;28;20448;-71
2022/08/07 08:34:23;;;;;;;4.20;1.50;;;23.60;31.60;;;;;;5036487;28;20424;-71
2022/08/07 08:37:10;;;;;;;4.10;1.40;;;23.70;32.70;;;;;;5040050;28;20563;-71
2022/08/07 08:39:57;;;;;;;4.07;1.10;;;23.70;31.50;;;;;;5045643;28;20574;-71
2022/08/07 08:42:52;;;;;;;3.13;1.50;;;23.70;30.70;;;;;;5042876;28;20416;-71
2022/08/07 08:45:42;;;;;;;3.50;1.50;;;23.70;30.40;;;;;;5043157;28;20479;-71
2022/08/07 08:48:37;;;;;;;2.53;1.33;;;23.80;29.50;;;;;;5033054;28;20518;-70
2022/08/07 08:51:28;;;;;;;2.57;1.20;;;23.80;29.70;;;;;;5045893;28;20817;-71
2022/08/07 08:54:22;;;;;;;2.60;1.30;;;23.70;30.00;;;;;;5044240;28;20428;-72
2022/08/07 08:57:14;;;;;;;2.40;1.27;;;23.70;31.10;;;;;;5043585;28;20599;-71
2022/08/07 09:00:04;;;;;;;2.90;1.40;;;23.80;32.10;;;;;;5046089;28;20810;-71
2022/08/07 09:02:59;;;;;;;3.43;1.30;;;23.80;29.60;;;;;;5050695;28;20929;-71
2022/08/07 09:05:53;;;;;;;3.83;1.20;;;23.90;29.90;;;;;;5034249;28;20467;-71
2022/08/07 09:08:44;;;;;;;2.60;1.27;;;24.00;29.70;;;;;;5033357;28;20447;-71
2022/08/07 09:11:39;;;;;;;3.10;1.40;;;24.10;29.80;;;;;;5039631;28;20452;-71
2022/08/07 09:14:33;;;;;;;3.80;1.20;;;24.30;28.50;;;;;;5036317;28;20486;-71
2022/08/07 09:17:34;;;;;;;2.27;1.30;;;24.40;28.80;;;;;;5032406;28;20519;-72
2022/08/07 09:20:30;;;;;;;4.70;1.27;;;24.50;28.10;;;;;;5045177;28;20968;-71
2022/08/07 09:23:29;;;;;;;2.90;1.10;;;24.50;27.90;;;;;;5047513;28;20440;-71
2022/08/07 09:26:24;;;;;;;2.57;1.20;;;24.60;26.70;;;;;;5038297;28;20632;-71
2022/08/07 09:29:21;;;;;;;1.90;1.00;;;24.40;25.30;;;;;;5044449;28;20848;-71
2022/08/07 09:32:19;;;;;;;2.50;1.10;;;24.30;27.00;;;;;;5049194;28;20597;-71
2022/08/07 09:35:14;;;;;;;2.83;1.07;;;24.40;25.60;;;;;;5051810;28;20964;-71
2022/08/07 09:38:10;;;;;;;5.67;1.00;;;24.60;25.50;;;;;;5034832;28;20534;-71
2022/08/07 09:41:09;;;;;;;3.10;1.13;;;24.80;25.50;;;;;;5050202;28;20492;-71
2022/08/07 09:44:03;;;;;;;4.23;1.20;;;25.00;25.30;;;;;;5037040;28;20572;-71
2022/08/07 09:47:03;;;;;;;3.70;1.33;;;25.10;24.90;;;;;;5035597;28;20488;-71
2022/08/07 09:49:57;;;;;;;1.90;1.03;;;25.20;24.50;;;;;;5038176;28;20941;-70
2022/08/07 09:52:48;;;;;;;4.00;0.73;;;25.30;22.80;;;;;;5045192;28;20432;-71
2022/08/07 09:55:59;;;;;;;2.17;0.90;;;25.40;23.00;;;;;;5035349;28;20424;-70
2022/08/07 09:59:09;;;;;;;2.30;1.33;;;25.30;22.20;;;;;;5032823;28;20526;-71
2022/08/07 10:02:07;;;;;;;2.07;1.00;;;25.40;22.70;;;;;;5039740;28;20471;-71
2022/08/07 10:05:13;;;;;;;4.33;1.00;;;25.50;21.80;;;;;;5039125;28;20452;-71
2022/08/07 10:08:15;;;;;;;2.10;1.10;;;25.60;22.20;;;;;;5033020;28;20490;-71
2022/08/07 10:11:08;;;;;;;3.03;0.80;;;25.70;20.80;;;;;;5043293;28;20462;-71
2022/08/07 10:14:09;;;;;;;2.00;1.03;;;25.70;20.70;;;;;;5039302;28;20493;-71
2022/08/07 10:17:15;;;;;;;4.23;1.00;;;25.80;22.50;;;;;;5032353;28;20441;-70
2022/08/07 10:20:15;;;;;;;1.70;0.80;;;25.80;21.40;;;;;;5041199;28;20547;-70
2022/08/07 10:23:30;;;;;;;1.60;0.63;;;25.90;21.20;;;;;;5048288;28;20425;-71
2022/08/07 10:26:28;;;;;;;2.83;0.97;;;25.90;21.20;;;;;;5029321;28;21008;-70
2022/08/07 10:29:42;;;;;;;2.13;0.80;;;26.10;21.60;;;;;;5043025;28;20433;-70
2022/08/07 10:32:45;;;;;;;3.90;1.00;;;26.10;22.40;;;;;;5042483;28;20440;-71
2022/08/07 10:35:42;;;;;;;3.93;0.77;;;26.10;21.50;;;;;;5038447;28;20452;-70
2022/08/07 10:38:48;;;;;;;1.97;0.70;;;26.20;19.80;;;;;;5044947;28;20452;-70
2022/08/07 10:41:36;;;;;;;2.30;1.10;;;26.30;19.80;;;;;;5051819;28;20445;-70
2022/08/07 10:44:31;;;;;;;3.47;1.10;;;26.30;18.40;;;;;;5044386;28;20419;-70
2022/08/07 10:47:24;;;;;;;1.90;1.00;;;26.30;19.00;;;;;;5033441;28;20566;-70
2022/08/07 10:50:14;;;;;;;3.53;0.77;;;26.30;19.10;;;;;;5047008;28;20472;-71
2022/08/07 10:53:09;;;;;;;2.27;0.73;;;26.30;19.80;;;;;;5049175;28;20458;-71
2022/08/07 10:56:03;;;;;;;9.53;1.03;;;26.50;19.10;;;;;;5033744;28;20528;-71
2022/08/07 10:59:00;;;;;;;2.30;1.03;;;26.50;18.50;;;;;;5033414;28;20425;-71
2022/08/07 11:01:52;;;;;;;1.97;0.70;;;26.50;18.50;;;;;;5040168;28;20641;-70
2022/08/07 11:04:56;;;;;;;4.63;0.80;;;26.50;18.30;;;;;;5035767;28;20448;-72
2022/08/07 11:07:55;;;;;;;4.03;0.87;;;26.70;19.20;;;;;;5038802;28;20830;-73
2022/08/07 11:10:45;;;;;;;3.00;1.00;;;26.80;18.80;;;;;;5052213;28;20447;-72
2022/08/07 11:13:38;;;;;;;2.70;0.90;;;26.90;17.70;;;;;;5039201;28;20432;-71
2022/08/07 11:16:28;;;;;;;1.80;0.90;;;27.00;17.70;;;;;;5031280;28;20965;-71
2022/08/07 11:19:20;;;;;;;1.70;0.63;;;27.00;16.70;;;;;;5043076;28;20437;-72
2022/08/07 11:22:12;;;;;;;2.47;0.90;;;27.00;16.40;;;;;;5036581;28;20941;-71
2022/08/07 11:25:05;;;;;;;3.77;0.80;;;26.90;17.40;;;;;;5037420;28;20448;-71
2022/08/07 11:27:56;;;;;;;2.37;1.00;;;26.90;18.70;;;;;;5033600;28;20999;-72
2022/08/07 11:30:51;;;;;;;2.50;1.17;;;27.10;17.60;;;;;;5042757;28;20448;-72
2022/08/07 11:33:46;;;;;;;1.90;0.80;;;27.10;18.70;;;;;;5049444;28;20995;-71
2022/08/07 11:36:41;;;;;;;8.93;0.83;;;27.30;17.30;;;;;;5032793;28;20444;-71
2022/08/07 11:39:50;;;;;;;2.20;1.00;;;27.40;15.60;;;;;;5032871;28;20958;-71
2022/08/07 11:42:57;;;;;;;2.77;0.80;;;27.40;15.90;;;;;;5030150;28;20459;-72
2022/08/07 11:46:05;;;;;;;1.70;0.67;;;27.30;16.20;;;;;;5023591;28;20595;-72
2022/08/07 11:49:19;;;;;;;5.07;1.10;;;27.10;17.20;;;;;;5029189;28;20449;-71
2022/08/07 11:52:20;;;;;;;1.70;0.60;;;27.30;18.80;;;;;;5038970;28;20487;-72
2022/08/07 11:55:18;;;;;;;3.23;0.83;;;27.50;16.00;;;;;;5031477;28;20623;-72
2022/08/07 11:58:15;;;;;;;4.53;1.10;;;27.60;16.30;;;;;;5040518;28;20565;-72
2022/08/07 12:01:14;;;;;;;2.03;0.80;;;27.70;16.30;;;;;;5032054;28;20531;-72
2022/08/07 12:04:24;;;;;;;1.63;0.60;;;27.80;15.80;;;;;;5031393;28;20453;-72
2022/08/07 12:07:20;;;;;;;2.83;0.77;;;27.80;16.00;;;;;;5033374;28;20468;-72
2022/08/07 12:10:13;;;;;;;3.60;0.80;;;27.90;16.10;;;;;;5031606;28;20547;-72
2022/08/07 12:13:06;;;;;;;3.60;0.73;;;28.00;15.90;;;;;;5026688;28;20453;-72
2022/08/07 12:15:54;;;;;;;2.27;1.20;;;28.00;16.60;;;;;;5026563;28;20453;-73
2022/08/07 12:18:48;;;;;;;1.90;0.80;;;28.10;15.00;;;;;;5029156;28;20494;-73
2022/08/07 12:21:44;;;;;;;2.40;0.90;;;28.30;15.90;;;;;;5032732;28;20539;-73
2022/08/07 12:24:37;;;;;;;2.33;0.70;;;28.40;14.70;;;;;;5026574;28;20452;-72
2022/08/07 12:27:24;;;;;;;3.60;0.80;;;28.50;14.90;;;;;;5030461;28;20519;-72
2022/08/07 12:30:10;;;;;;;2.20;0.70;;;28.50;14.80;;;;;;5032836;28;20471;-72
2022/08/07 12:33:01;;;;;;;2.50;0.90;;;28.60;15.90;;;;;;5029036;28;20855;-72
2022/08/07 12:35:51;;;;;;;2.40;0.90;;;28.70;15.90;;;;;;5029451;28;20428;-73
2022/08/07 12:38:39;;;;;;;2.03;0.70;;;28.80;14.50;;;;;;5030173;28;20440;-73
2022/08/07 12:41:26;;;;;;;2.10;0.97;;;29.00;14.00;;;;;;5030824;28;20459;-73
2022/08/07 12:44:14;;;;;;;2.00;0.60;;;29.20;13.60;;;;;;5021330;28;20985;-72
2022/08/07 12:47:09;;;;;;;2.07;0.70;;;29.20;13.50;;;;;;5027132;28;20468;-72
2022/08/07 12:50:03;;;;;;;3.13;0.87;;;29.20;13.50;;;;;;5032862;28;21073;-72
2022/08/07 12:52:56;;;;;;;1.87;0.80;;;29.20;13.70;;;;;;5033266;28;20983;-73
2022/08/07 12:55:46;;;;;;;4.37;1.00;;;29.10;13.60;;;;;;5028784;28;20457;-72
2022/08/07 12:58:37;;;;;;;2.50;1.20;;;29.10;14.10;;;;;;5033658;28;20456;-72
2022/08/07 13:01:37;;;;;;;2.10;0.67;;;29.10;13.60;;;;;;5026370;28;20543;-72
2022/08/07 13:04:39;;;;;;;2.00;0.80;;;29.10;14.70;;;;;;5030474;28;20467;-72
2022/08/07 13:07:48;;;;;;;2.27;0.83;;;29.30;14.00;;;;;;5038647;28;20517;-72
2022/08/07 13:10:58;;;;;;;2.90;1.17;;;29.40;13.20;;;;;;5033103;28;21076;-72
2022/08/07 13:13:57;;;;;;;2.87;0.80;;;29.50;13.80;;;;;;5034941;28;20444;-72
2022/08/07 13:16:54;;;;;;;2.70;0.80;;;29.60;13.40;;;;;;5038146;28;20659;-72
2022/08/07 13:19:52;;;;;;;2.60;0.90;;;29.70;12.70;;;;;;5032275;28;20468;-73
2022/08/07 13:22:41;;;;;;;2.63;0.83;;;29.80;12.60;;;;;;5037040;28;20460;-72
2022/08/07 13:25:33;;;;;;;2.10;0.73;;;29.90;13.30;;;;;;5036519;28;20582;-73
2022/08/07 13:28:28;;;;;;;2.30;0.80;;;30.10;13.10;;;;;;5044833;28;20467;-72
2022/08/07 13:31:20;;;;;;;2.53;0.90;;;30.30;12.70;;;;;;5041709;28;20846;-73
2022/08/07 13:34:16;;;;;;;1.90;0.80;;;30.50;10.80;;;;;;5027160;28;20444;-72
2022/08/07 13:37:08;;;;;;;1.97;0.63;;;30.70;11.40;;;;;;5036402;28;20870;-72
2022/08/07 13:40:05;;;;;;;2.40;0.90;;;30.80;11.60;;;;;;5038823;28;20428;-73
2022/08/07 13:42:54;;;;;;;2.40;0.63;;;31.00;11.70;;;;;;5024112;28;20508;-73
2022/08/07 13:45:45;;;;;;;2.73;0.83;;;31.00;10.80;;;;;;5032612;28;20480;-72
2022/08/07 13:48:32;;;;;;;3.30;0.83;;;30.90;10.70;;;;;;5035285;28;20627;-73
2022/08/07 13:51:19;;;;;;;2.60;1.00;;;30.90;10.70;;;;;;5032640;28;20456;-72
2022/08/07 13:54:12;;;;;;;5.77;0.83;;;30.80;10.60;;;;;;5027217;28;20448;-72
2022/08/07 13:57:01;;;;;;;3.03;0.73;;;30.90;9.80;;;;;;5036104;28;20432;-73
2022/08/07 13:59:54;;;;;;;2.43;0.90;;;30.80;9.90;;;;;;5030727;28;20559;-73
2022/08/07 14:02:43;;;;;;;2.70;1.20;;;30.80;10.60;;;;;;5030578;28;20456;-72
2022/08/07 14:05:29;;;;;;;2.20;0.80;;;30.80;10.50;;;;;;5033240;28;20436;-72
2022/08/07 14:08:16;;;;;;;2.00;0.60;;;30.70;10.60;;;;;;5029997;28;20460;-72
2022/08/07 14:11:05;;;;;;;2.30;0.83;;;30.80;10.70;;;;;;5030084;28;20538;-72
2022/08/07 14:13:55;;;;;;;2.00;0.77;;;30.90;10.60;;;;;;5031203;28;20518;-72
2022/08/07 14:16:46;;;;;;;2.67;0.70;;;31.00;9.70;;;;;;5030432;28;20599;-72
2022/08/07 14:19:37;;;;;;;7.10;0.73;;;31.20;10.90;;;;;;5026598;28;20436;-72
2022/08/07 14:22:27;;;;;;;5.23;0.93;;;31.30;11.00;;;;;;5028679;28;20500;-72
2022/08/07 14:25:16;;;;;;;2.10;0.93;;;31.40;10.70;;;;;;5028014;28;20454;-72
2022/08/07 14:28:06;;;;;;;3.17;0.70;;;31.40;9.20;;;;;;5031317;28;20992;-72
2022/08/07 14:30:52;;;;;;;3.77;0.80;;;31.40;10.70;;;;;;5032973;28;20456;-72
2022/08/07 14:33:38;;;;;;;2.57;0.77;;;31.30;9.70;;;;;;5027799;28;20502;-72
2022/08/07 14:36:26;;;;;;;1.90;0.67;;;31.20;9.70;;;;;;5037091;28;20931;-72
2022/08/07 14:39:13;;;;;;;2.00;0.80;;;31.20;9.80;;;;;;5028977;28;20447;-72
2022/08/07 14:42:01;;;;;;;4.67;0.90;;;31.00;10.80;;;;;;5026082;28;20913;-72
2022/08/07 14:44:52;;;;;;;2.70;0.80;;;30.90;10.40;;;;;;5030446;28;20556;-72
2022/08/07 14:47:39;;;;;;;5.40;1.20;;;30.90;10.30;;;;;;5029103;28;20484;-72
2022/08/07 14:50:26;;;;;;;4.37;1.07;;;30.90;10.70;;;;;;5031954;28;20503;-72
2022/08/07 14:53:14;;;;;;;2.23;0.80;;;31.00;10.80;;;;;;5031792;28;20591;-72
2022/08/07 14:56:04;;;;;;;2.40;0.90;;;31.00;10.80;;;;;;5032250;28;20433;-73
2022/08/07 14:58:53;;;;;;;1.87;0.60;;;31.10;10.80;;;;;;5028077;28;20596;-73
2022/08/07 15:01:40;;;;;;;2.20;0.70;;;31.00;10.10;;;;;;5024542;28;21001;-72
2022/08/07 15:04:27;;;;;;;2.47;0.70;;;31.00;10.80;;;;;;5037405;28;20449;-72
2022/08/07 15:07:20;;;;;;;2.13;0.77;;;31.10;10.80;;;;;;5038032;28;20493;-73
2022/08/07 15:10:08;;;;;;;2.17;0.70;;;30.60;9.80;;;;;;5032057;28;20481;-73
2022/08/07 15:12:57;;;;;;;3.33;0.90;;;30.00;10.20;;;;;;5028090;28;20981;-72